createdAt,value
2018-04-08T00:00:26.674Z,1004.35
2018-04-08T00:01:35.870Z,1004.39
2018-04-08T00:02:44.516Z,1004.38
2018-04-08T00:03:53.438Z,1004.35
2018-04-08T00:05:02.062Z,1004.38
2018-04-08T00:06:11.233Z,1004.34
2018-04-08T00:07:19.879Z,1004.37
2018-04-08T00:08:29.051Z,1004.33
2018-04-08T00:09:38.454Z,1004.34
2018-04-08T00:10:47.588Z,1004.36
2018-04-08T00:11:56.484Z,1004.34
2018-04-08T00:13:05.628Z,1004.32
2018-04-08T00:14:14.780Z,1004.31
2018-04-08T00:15:23.930Z,1004.31
2018-04-08T00:16:32.827Z,1004.3
2018-04-08T00:17:41.726Z,1004.3
2018-04-08T00:18:50.368Z,1004.31
2018-04-08T00:19:59.537Z,1004.31
2018-04-08T00:21:08.162Z,1004.28
2018-04-08T00:22:17.319Z,1004.26
2018-04-08T00:23:26.475Z,1004.27
2018-04-08T00:24:35.119Z,1004.26
2018-04-08T00:25:44.029Z,1004.24
2018-04-08T00:26:52.657Z,1004.22
2018-04-08T00:28:01.559Z,1004.23
2018-04-08T00:29:10.473Z,1004.14
2018-04-08T00:30:19.118Z,1004.14
2018-04-08T00:31:27.778Z,1004.15
2018-04-08T00:32:36.694Z,1004.16
2018-04-08T00:33:45.880Z,1004.17
2018-04-08T00:34:54.776Z,1004.16
2018-04-08T00:36:03.939Z,1004.14
2018-04-08T00:37:12.845Z,1004.12
2018-04-08T00:38:21.752Z,1004.14
2018-04-08T00:39:30.666Z,1004.1
2018-04-08T00:40:39.824Z,1004.11
2018-04-08T00:41:49.233Z,1004.11
2018-04-08T00:42:58.391Z,1004.09
2018-04-08T00:44:07.638Z,1004.05
2018-04-08T00:45:17.041Z,1004.02
2018-04-08T00:46:26.174Z,1004.01
2018-04-08T00:47:35.376Z,1004.01
2018-04-08T00:48:44.271Z,1003.95
2018-04-08T00:49:54.875Z,1003.98
2018-04-08T00:51:04.322Z,1003.97
2018-04-08T00:52:13.242Z,1004.02
2018-04-08T00:53:22.455Z,1003.98
2018-04-08T00:54:31.617Z,1004
2018-04-08T00:55:40.552Z,1003.97
2018-04-08T00:56:49.753Z,1003.99
2018-04-08T00:57:59.163Z,1003.99
2018-04-08T00:59:07.798Z,1003.98
2018-04-08T01:00:16.946Z,1004
2018-04-08T01:01:26.102Z,1003.97
2018-04-08T01:02:35.257Z,1003.96
2018-04-08T01:03:44.672Z,1003.95
2018-04-08T01:04:53.608Z,1003.96
2018-04-08T01:06:02.510Z,1003.98
2018-04-08T01:07:11.190Z,1003.93
2018-04-08T01:08:20.092Z,1003.96
2018-04-08T01:09:29.267Z,1003.95
2018-04-08T01:10:38.162Z,1003.97
2018-04-08T01:11:47.565Z,1004.02
2018-04-08T01:12:56.712Z,1003.98
2018-04-08T01:14:06.288Z,1003.97
2018-04-08T01:15:14.945Z,1003.98
2018-04-08T01:16:23.836Z,1003.94
2018-04-08T01:17:32.740Z,1003.93
2018-04-08T01:18:41.636Z,1003.95
2018-04-08T01:19:50.276Z,1003.93
2018-04-08T01:20:59.184Z,1003.91
2018-04-08T01:22:08.170Z,1003.89
2018-04-08T01:23:17.065Z,1003.93
2018-04-08T01:24:25.976Z,1003.91
2018-04-08T01:25:34.989Z,1003.92
2018-04-08T01:26:44.141Z,1003.94
2018-04-08T01:27:52.772Z,1003.9
2018-04-08T01:29:01.399Z,1003.9
2018-04-08T01:30:10.300Z,1003.9
2018-04-08T01:31:19.289Z,1003.88
2018-04-08T01:32:28.440Z,1003.9
2018-04-08T01:33:37.325Z,1003.92
2018-04-08T01:34:46.513Z,1003.94
2018-04-08T01:35:55.407Z,1003.89
2018-04-08T01:37:04.806Z,1003.91
2018-04-08T01:38:13.692Z,1003.9
2018-04-08T01:39:22.840Z,1003.9
2018-04-08T01:40:32.008Z,1003.91
2018-04-08T01:41:40.895Z,1003.92
2018-04-08T01:42:50.074Z,1003.88
2018-04-08T01:43:58.974Z,1003.91
2018-04-08T01:45:08.648Z,1003.93
2018-04-08T01:46:18.053Z,1003.87
2018-04-08T01:47:26.951Z,1003.92
2018-04-08T01:48:36.355Z,1003.91
2018-04-08T01:49:45.543Z,1003.95
2018-04-08T01:50:54.692Z,1003.92
2018-04-08T01:52:04.104Z,1003.93
2018-04-08T01:53:13.009Z,1003.9
2018-04-08T01:54:21.897Z,1003.93
2018-04-08T01:55:31.062Z,1003.94
2018-04-08T01:56:39.953Z,1003.93
2018-04-08T01:57:48.848Z,1003.88
2018-04-08T01:58:58.041Z,1003.89
2018-04-08T02:00:06.686Z,1003.86
2018-04-08T02:01:15.828Z,1003.84
2018-04-08T02:02:24.719Z,1003.85
2018-04-08T02:03:34.144Z,1003.83
2018-04-08T02:04:43.549Z,1003.84
2018-04-08T02:05:52.445Z,1003.86
2018-04-08T02:07:01.341Z,1003.84
2018-04-08T02:08:10.497Z,1003.85
2018-04-08T02:09:19.904Z,1003.82
2018-04-08T02:10:29.169Z,1003.84
2018-04-08T02:11:38.076Z,1003.82
2018-04-08T02:12:47.245Z,1003.81
2018-04-08T02:13:56.653Z,1003.81
2018-04-08T02:15:05.798Z,1003.82
2018-04-08T02:16:14.738Z,1003.81
2018-04-08T02:17:23.891Z,1003.78
2018-04-08T02:18:33.565Z,1003.8
2018-04-08T02:19:42.709Z,1003.81
2018-04-08T02:20:51.620Z,1003.8
2018-04-08T02:22:00.508Z,1003.78
2018-04-08T02:23:09.719Z,1003.74
2018-04-08T02:24:18.910Z,1003.77
2018-04-08T02:25:28.621Z,1003.74
2018-04-08T02:26:37.781Z,1003.77
2018-04-08T02:27:46.683Z,1003.78
2018-04-08T02:28:55.565Z,1003.74
2018-04-08T02:30:05.224Z,1003.79
2018-04-08T02:31:14.372Z,1003.76
2018-04-08T02:32:23.773Z,1003.75
2018-04-08T02:33:32.936Z,1003.75
2018-04-08T02:34:42.353Z,1003.72
2018-04-08T02:35:50.992Z,1003.75
2018-04-08T02:37:00.147Z,1003.71
2018-04-08T02:38:08.798Z,1003.71
2018-04-08T02:39:17.952Z,1003.67
2018-04-08T02:40:27.126Z,1003.68
2018-04-08T02:41:36.040Z,1003.71
2018-04-08T02:42:45.453Z,1003.67
2018-04-08T02:43:55.389Z,1003.66
2018-04-08T02:45:04.297Z,1003.65
2018-04-08T02:46:13.975Z,1003.64
2018-04-08T02:47:23.123Z,1003.64
2018-04-08T02:48:32.548Z,1003.61
2018-04-08T02:49:42.241Z,1003.63
2018-04-08T02:50:51.398Z,1003.64
2018-04-08T02:52:00.600Z,1003.63
2018-04-08T02:53:09.754Z,1003.63
2018-04-08T02:54:18.671Z,1003.64
2018-04-08T02:55:27.567Z,1003.71
2018-04-08T02:56:36.729Z,1003.69
2018-04-08T02:57:46.135Z,1003.65
2018-04-08T02:58:55.565Z,1003.68
2018-04-08T03:00:04.480Z,1003.65
2018-04-08T03:01:13.914Z,1003.66
2018-04-08T03:02:23.069Z,1003.65
2018-04-08T03:03:31.982Z,1003.64
2018-04-08T03:04:41.178Z,1003.63
2018-04-08T03:05:50.578Z,1003.63
2018-04-08T03:06:59.494Z,1003.63
2018-04-08T03:08:08.664Z,1003.64
2018-04-08T03:09:17.815Z,1003.59
2018-04-08T03:10:27.510Z,1003.6
2018-04-08T03:11:36.939Z,1003.6
2018-04-08T03:12:45.585Z,1003.6
2018-04-08T03:13:54.742Z,1003.57
2018-04-08T03:15:03.910Z,1003.59
2018-04-08T03:16:13.048Z,1003.61
2018-04-08T03:17:21.934Z,1003.6
2018-04-08T03:18:31.351Z,1003.56
2018-04-08T03:19:40.941Z,1003.57
2018-04-08T03:20:49.585Z,1003.53
2018-04-08T03:21:58.224Z,1003.52
2018-04-08T03:23:08.155Z,1003.54
2018-04-08T03:24:17.308Z,1003.51
2018-04-08T03:25:26.455Z,1003.5
2018-04-08T03:26:35.345Z,1003.54
2018-04-08T03:27:45.027Z,1003.51
2018-04-08T03:28:54.180Z,1003.54
2018-04-08T03:30:03.322Z,1003.5
2018-04-08T03:31:12.769Z,1003.52
2018-04-08T03:32:21.938Z,1003.49
2018-04-08T03:33:31.139Z,1003.47
2018-04-08T03:34:39.767Z,1003.48
2018-04-08T03:35:48.660Z,1003.46
2018-04-08T03:36:57.546Z,1003.43
2018-04-08T03:38:06.178Z,1003.49
2018-04-08T03:39:15.360Z,1003.47
2018-04-08T03:40:24.002Z,1003.46
2018-04-08T03:41:33.166Z,1003.43
2018-04-08T03:42:42.053Z,1003.44
2018-04-08T03:43:51.200Z,1003.45
2018-04-08T03:45:00.119Z,1003.43
2018-04-08T03:46:09.035Z,1003.46
2018-04-08T03:47:18.184Z,1003.46
2018-04-08T03:48:27.336Z,1003.42
2018-04-08T03:49:36.507Z,1003.41
2018-04-08T03:50:45.640Z,1003.4
2018-04-08T03:51:54.331Z,1003.39
2018-04-08T03:53:03.469Z,1003.41
2018-04-08T03:54:12.385Z,1003.41
2018-04-08T03:55:21.539Z,1003.38
2018-04-08T03:56:30.431Z,1003.36
2018-04-08T03:57:39.316Z,1003.36
2018-04-08T03:58:49.000Z,1003.36
2018-04-08T03:59:58.398Z,1003.37
2018-04-08T04:01:07.596Z,1003.38
2018-04-08T04:02:16.494Z,1003.37
2018-04-08T04:03:25.677Z,1003.35
2018-04-08T04:04:35.110Z,1003.3
2018-04-08T04:05:43.737Z,1003.31
2018-04-08T04:06:52.874Z,1003.3
2018-04-08T04:08:02.817Z,1003.3
2018-04-08T04:09:12.003Z,1003.27
2018-04-08T04:10:20.893Z,1003.29
2018-04-08T04:11:30.305Z,1003.33
2018-04-08T04:12:39.270Z,1003.29
2018-04-08T04:13:48.157Z,1003.3
2018-04-08T04:14:57.333Z,1003.29
2018-04-08T04:16:06.554Z,1003.24
2018-04-08T04:17:15.444Z,1003.27
2018-04-08T04:18:24.611Z,1003.28
2018-04-08T04:19:34.018Z,1003.29
2018-04-08T04:20:43.161Z,1003.29
2018-04-08T04:21:52.346Z,1003.25
2018-04-08T04:23:01.749Z,1003.23
2018-04-08T04:24:10.909Z,1003.28
2018-04-08T04:25:20.054Z,1003.28
2018-04-08T04:26:29.225Z,1003.26
2018-04-08T04:27:38.107Z,1003.27
2018-04-08T04:28:47.008Z,1003.29
2018-04-08T04:29:55.899Z,1003.3
2018-04-08T04:31:04.788Z,1003.29
2018-04-08T04:32:14.213Z,1003.29
2018-04-08T04:33:23.104Z,1003.33
2018-04-08T04:34:31.815Z,1003.32
2018-04-08T04:35:41.241Z,1003.3
2018-04-08T04:36:50.388Z,1003.32
2018-04-08T04:37:59.307Z,1003.3
2018-04-08T04:39:08.469Z,1003.34
2018-04-08T04:40:17.631Z,1003.39
2018-04-08T04:41:26.587Z,1003.36
2018-04-08T04:42:35.746Z,1003.31
2018-04-08T04:43:44.918Z,1003.32
2018-04-08T04:44:54.079Z,1003.29
2018-04-08T04:46:02.721Z,1003.34
2018-04-08T04:47:12.137Z,1003.3
2018-04-08T04:48:20.773Z,1003.33
2018-04-08T04:49:29.421Z,1003.37
2018-04-08T04:50:38.566Z,1003.36
2018-04-08T04:51:47.716Z,1003.39
2018-04-08T04:52:56.356Z,1003.37
2018-04-08T04:54:05.525Z,1003.37
2018-04-08T04:55:14.444Z,1003.34
2018-04-08T04:56:23.343Z,1003.33
2018-04-08T04:57:32.496Z,1003.34
2018-04-08T04:58:41.389Z,1003.32
2018-04-08T04:59:50.018Z,1003.36
2018-04-08T05:00:59.185Z,1003.34
2018-04-08T05:02:08.340Z,1003.37
2018-04-08T05:03:17.770Z,1003.34
2018-04-08T05:04:26.931Z,1003.33
2018-04-08T05:05:36.358Z,1003.31
2018-04-08T05:06:46.188Z,1003.36
2018-04-08T05:07:55.086Z,1003.33
2018-04-08T05:09:04.252Z,1003.35
2018-04-08T05:10:13.939Z,1003.33
2018-04-08T05:11:23.145Z,1003.33
2018-04-08T05:12:32.303Z,1003.31
2018-04-08T05:13:41.729Z,1003.36
2018-04-08T05:14:51.227Z,1003.35
2018-04-08T05:16:00.373Z,1003.34
2018-04-08T05:17:09.259Z,1003.36
2018-04-08T05:18:18.150Z,1003.33
2018-04-08T05:19:27.403Z,1003.36
2018-04-08T05:20:36.595Z,1003.32
2018-04-08T05:21:45.480Z,1003.34
2018-04-08T05:22:54.638Z,1003.36
2018-04-08T05:24:03.533Z,1003.36
2018-04-08T05:25:12.692Z,1003.42
2018-04-08T05:26:21.622Z,1003.36
2018-04-08T05:27:30.532Z,1003.34
2018-04-08T05:28:39.189Z,1003.34
2018-04-08T05:29:48.334Z,1003.4
2018-04-08T05:30:57.481Z,1003.44
2018-04-08T05:32:06.386Z,1003.43
2018-04-08T05:33:15.784Z,1003.48
2018-04-08T05:34:25.183Z,1003.45
2018-04-08T05:35:34.586Z,1003.45
2018-04-08T05:36:43.726Z,1003.49
2018-04-08T05:37:52.894Z,1003.49
2018-04-08T05:39:02.296Z,1003.54
2018-04-08T05:40:11.198Z,1003.54
2018-04-08T05:41:20.156Z,1003.55
2018-04-08T05:42:29.564Z,1003.59
2018-04-08T05:43:38.724Z,1003.63
2018-04-08T05:44:47.876Z,1003.67
2018-04-08T05:45:56.788Z,1003.71
2018-04-08T05:47:05.936Z,1003.68
2018-04-08T05:48:15.090Z,1003.7
2018-04-08T05:49:24.524Z,1003.75
2018-04-08T05:50:33.171Z,1003.74
2018-04-08T05:51:42.082Z,1003.73
2018-04-08T05:52:50.978Z,1003.69
2018-04-08T05:54:00.420Z,1003.67
2018-04-08T05:55:09.062Z,1003.7
2018-04-08T05:56:17.965Z,1003.74
2018-04-08T05:57:27.128Z,1003.7
2018-04-08T05:58:36.020Z,1003.67
2018-04-08T05:59:45.182Z,1003.7
2018-04-08T06:00:55.122Z,1003.66
2018-04-08T06:02:04.301Z,1003.64
2018-04-08T06:03:12.951Z,1003.68
2018-04-08T06:04:22.111Z,1003.65
2018-04-08T06:05:31.558Z,1003.66
2018-04-08T06:06:40.965Z,1003.64
2018-04-08T06:07:50.107Z,1003.71
2018-04-08T06:08:58.751Z,1003.65
2018-04-08T06:10:08.429Z,1003.67
2018-04-08T06:11:17.955Z,1003.63
2018-04-08T06:12:27.656Z,1003.66
2018-04-08T06:13:37.072Z,1003.63
2018-04-08T06:14:46.230Z,1003.64
2018-04-08T06:15:55.128Z,1003.61
2018-04-08T06:17:04.018Z,1003.62
2018-04-08T06:18:12.652Z,1003.61
2018-04-08T06:19:22.052Z,1003.56
2018-04-08T06:20:30.683Z,1003.56
2018-04-08T06:21:40.149Z,1003.53
2018-04-08T06:22:49.572Z,1003.56
2018-04-08T06:23:58.460Z,1003.54
2018-04-08T06:25:07.384Z,1003.53
2018-04-08T06:26:16.272Z,1003.56
2018-04-08T06:27:25.411Z,1003.57
2018-04-08T06:28:34.297Z,1003.59
2018-04-08T06:29:43.459Z,1003.61
2018-04-08T06:30:52.648Z,1003.6
2018-04-08T06:32:02.330Z,1003.62
2018-04-08T06:33:11.225Z,1003.62
2018-04-08T06:34:19.856Z,1003.64
2018-04-08T06:35:28.743Z,1003.63
2018-04-08T06:36:37.626Z,1003.62
2018-04-08T06:37:47.109Z,1003.63
2018-04-08T06:38:55.766Z,1003.66
2018-04-08T06:40:04.688Z,1003.66
2018-04-08T06:41:14.515Z,1003.68
2018-04-08T06:42:24.600Z,1003.69
2018-04-08T06:43:33.782Z,1003.67
2018-04-08T06:44:42.675Z,1003.7
2018-04-08T06:45:51.566Z,1003.7
2018-04-08T06:47:00.732Z,1003.69
2018-04-08T06:48:10.137Z,1003.71
2018-04-08T06:49:19.546Z,1003.69
2018-04-08T06:50:28.786Z,1003.65
2018-04-08T06:51:37.682Z,1003.7
2018-04-08T06:52:46.396Z,1003.65
2018-04-08T06:53:55.306Z,1003.65
2018-04-08T06:55:04.496Z,1003.68
2018-04-08T06:56:13.936Z,1003.65
2018-04-08T06:57:22.844Z,1003.57
2018-04-08T06:58:31.734Z,1003.6
2018-04-08T06:59:41.140Z,1003.6
2018-04-08T07:00:50.795Z,1003.62
2018-04-08T07:01:59.698Z,1003.59
2018-04-08T07:03:09.359Z,1003.61
2018-04-08T07:04:18.766Z,1003.57
2018-04-08T07:05:27.668Z,1003.63
2018-04-08T07:06:37.085Z,1003.62
2018-04-08T07:07:45.986Z,1003.63
2018-04-08T07:08:54.900Z,1003.65
2018-04-08T07:10:04.333Z,1003.67
2018-04-08T07:11:12.969Z,1003.66
2018-04-08T07:12:22.176Z,1003.64
2018-04-08T07:13:30.805Z,1003.6
2018-04-08T07:14:39.955Z,1003.58
2018-04-08T07:15:48.883Z,1003.57
2018-04-08T07:16:58.035Z,1003.56
2018-04-08T07:18:06.944Z,1003.57
2018-04-08T07:19:16.352Z,1003.55
2018-04-08T07:20:25.230Z,1003.56
2018-04-08T07:21:34.124Z,1003.56
2018-04-08T07:22:43.278Z,1003.54
2018-04-08T07:23:52.235Z,1003.52
2018-04-08T07:25:01.407Z,1003.5
2018-04-08T07:26:10.557Z,1003.52
2018-04-08T07:27:19.992Z,1003.5
2018-04-08T07:28:28.626Z,1003.5
2018-04-08T07:29:38.565Z,1003.47
2018-04-08T07:30:47.733Z,1003.49
2018-04-08T07:31:56.630Z,1003.49
2018-04-08T07:33:05.777Z,1003.51
2018-04-08T07:34:14.699Z,1003.54
2018-04-08T07:35:23.848Z,1003.54
2018-04-08T07:36:32.751Z,1003.52
2018-04-08T07:37:41.911Z,1003.51
2018-04-08T07:38:50.542Z,1003.48
2018-04-08T07:39:59.431Z,1003.48
2018-04-08T07:41:08.322Z,1003.48
2018-04-08T07:42:17.800Z,1003.5
2018-04-08T07:43:26.967Z,1003.55
2018-04-08T07:44:35.933Z,1003.57
2018-04-08T07:45:44.815Z,1003.59
2018-04-08T07:46:53.969Z,1003.56
2018-04-08T07:48:02.932Z,1003.54
2018-04-08T07:49:12.362Z,1003.59
2018-04-08T07:50:21.568Z,1003.58
2018-04-08T07:51:30.714Z,1003.63
2018-04-08T07:52:39.766Z,1003.64
2018-04-08T07:53:48.658Z,1003.67
2018-04-08T07:54:57.296Z,1003.7
2018-04-08T07:56:05.960Z,1003.69
2018-04-08T07:57:15.122Z,1003.68
2018-04-08T07:58:24.273Z,1003.68
2018-04-08T07:59:33.686Z,1003.65
2018-04-08T08:00:42.834Z,1003.67
2018-04-08T08:01:51.752Z,1003.63
2018-04-08T08:03:01.959Z,1003.65
2018-04-08T08:04:11.422Z,1003.69
2018-04-08T08:05:20.598Z,1003.65
2018-04-08T08:06:30.784Z,1003.66
2018-04-08T08:07:41.085Z,1003.65
2018-04-08T08:08:50.464Z,1003.63
2018-04-08T08:09:59.929Z,1003.64
2018-04-08T08:11:09.090Z,1003.63
2018-04-08T08:12:18.990Z,1003.65
2018-04-08T08:13:29.290Z,1003.59
2018-04-08T08:14:39.324Z,1003.6
2018-04-08T08:15:48.865Z,1003.58
2018-04-08T08:16:58.126Z,1003.61
2018-04-08T08:18:07.054Z,1003.65
2018-04-08T08:19:16.235Z,1003.62
2018-04-08T08:20:25.734Z,1003.61
2018-04-08T08:21:34.580Z,1003.61
2018-04-08T08:22:44.007Z,1003.63
2018-04-08T08:23:52.648Z,1003.68
2018-04-08T08:25:01.802Z,1003.69
2018-04-08T08:26:11.223Z,1003.69
2018-04-08T08:27:20.387Z,1003.71
2018-04-08T08:28:29.025Z,1003.77
2018-04-08T08:29:38.349Z,1003.71
2018-04-08T08:30:47.774Z,1003.73
2018-04-08T08:31:57.229Z,1003.72
2018-04-08T08:33:06.111Z,1003.78
2018-04-08T08:34:15.014Z,1003.74
2018-04-08T08:35:24.414Z,1003.78
2018-04-08T08:36:33.581Z,1003.8
2018-04-08T08:37:42.744Z,1003.76
2018-04-08T08:38:51.658Z,1003.77
2018-04-08T08:40:01.336Z,1003.72
2018-04-08T08:41:10.482Z,1003.71
2018-04-08T08:42:19.646Z,1003.74
2018-04-08T08:43:28.549Z,1003.73
2018-04-08T08:44:37.729Z,1003.74
2018-04-08T08:45:46.932Z,1003.72
2018-04-08T08:46:55.872Z,1003.69
2018-04-08T08:48:04.765Z,1003.69
2018-04-08T08:49:14.003Z,1003.72
2018-04-08T08:50:23.162Z,1003.77
2018-04-08T08:51:32.345Z,1003.69
2018-04-08T08:52:41.011Z,1003.71
2018-04-08T08:53:49.673Z,1003.72
2018-04-08T08:54:59.224Z,1003.75
2018-04-08T08:56:08.177Z,1003.75
2018-04-08T08:57:17.364Z,1003.76
2018-04-08T08:58:26.000Z,1003.81
2018-04-08T08:59:34.649Z,1003.77
2018-04-08T09:00:43.810Z,1003.79
2018-04-08T09:01:53.545Z,1003.78
2018-04-08T09:03:02.697Z,1003.76
2018-04-08T09:04:11.891Z,1003.76
2018-04-08T09:05:20.520Z,1003.75
2018-04-08T09:06:29.439Z,1003.72
2018-04-08T09:07:39.306Z,1003.74
2018-04-08T09:08:48.731Z,1003.68
2018-04-08T09:09:57.892Z,1003.68
2018-04-08T09:11:07.578Z,1003.71
2018-04-08T09:12:16.208Z,1003.66
2018-04-08T09:13:25.356Z,1003.67
2018-04-08T09:14:34.275Z,1003.66
2018-04-08T09:15:43.422Z,1003.66
2018-04-08T09:16:52.620Z,1003.64
2018-04-08T09:18:01.496Z,1003.65
2018-04-08T09:19:10.651Z,1003.59
2018-04-08T09:20:19.549Z,1003.64
2018-04-08T09:21:28.184Z,1003.67
2018-04-08T09:22:37.109Z,1003.66
2018-04-08T09:23:46.250Z,1003.66
2018-04-08T09:24:55.454Z,1003.63
2018-04-08T09:26:04.356Z,1003.64
2018-04-08T09:27:13.348Z,1003.63
2018-04-08T09:28:22.511Z,1003.64
2018-04-08T09:29:31.175Z,1003.59
2018-04-08T09:30:40.085Z,1003.55
2018-04-08T09:31:48.725Z,1003.56
2018-04-08T09:32:57.936Z,1003.58
2018-04-08T09:34:07.116Z,1003.53
2018-04-08T09:35:16.550Z,1003.55
2018-04-08T09:36:25.994Z,1003.56
2018-04-08T09:37:35.478Z,1003.53
2018-04-08T09:38:44.412Z,1003.55
2018-04-08T09:39:53.302Z,1003.53
2018-04-08T09:41:01.950Z,1003.52
2018-04-08T09:42:11.414Z,1003.51
2018-04-08T09:43:20.608Z,1003.51
2018-04-08T09:44:29.523Z,1003.54
2018-04-08T09:45:38.699Z,1003.48
2018-04-08T09:46:47.861Z,1003.47
2018-04-08T09:47:56.760Z,1003.47
2018-04-08T09:49:05.926Z,1003.49
2018-04-08T09:50:14.817Z,1003.45
2018-04-08T09:51:23.962Z,1003.42
2018-04-08T09:52:32.621Z,1003.45
2018-04-08T09:53:41.775Z,1003.4
2018-04-08T09:54:51.244Z,1003.4
2018-04-08T09:56:00.149Z,1003.46
2018-04-08T09:57:09.364Z,1003.41
2018-04-08T09:58:18.785Z,1003.46
2018-04-08T09:59:27.985Z,1003.45
2018-04-08T10:00:37.140Z,1003.43
2018-04-08T10:01:46.325Z,1003.48
2018-04-08T10:02:55.503Z,1003.44
2018-04-08T10:04:04.413Z,1003.4
2018-04-08T10:05:13.584Z,1003.4
2018-04-08T10:06:23.058Z,1003.39
2018-04-08T10:07:31.993Z,1003.37
2018-04-08T10:08:41.156Z,1003.34
2018-04-08T10:09:50.947Z,1003.3
2018-04-08T10:11:00.411Z,1003.33
2018-04-08T10:12:09.470Z,1003.3
2018-04-08T10:13:18.933Z,1003.31
2018-04-08T10:14:28.102Z,1003.33
2018-04-08T10:15:37.139Z,1003.27
2018-04-08T10:16:46.669Z,1003.29
2018-04-08T10:17:55.562Z,1003.27
2018-04-08T10:19:04.211Z,1003.24
2018-04-08T10:20:13.113Z,1003.25
2018-04-08T10:21:21.765Z,1003.26
2018-04-08T10:22:30.661Z,1003.27
2018-04-08T10:23:39.297Z,1003.21
2018-04-08T10:24:48.457Z,1003.24
2018-04-08T10:25:57.405Z,1003.21
2018-04-08T10:27:06.322Z,1003.19
2018-04-08T10:28:15.494Z,1003.18
2018-04-08T10:29:24.183Z,1003.24
2018-04-08T10:30:32.765Z,1003.17
2018-04-08T10:31:41.400Z,1003.2
2018-04-08T10:32:50.295Z,1003.16
2018-04-08T10:33:59.483Z,1003.17
2018-04-08T10:35:08.134Z,1003.15
2018-04-08T10:36:17.033Z,1003.14
2018-04-08T10:37:26.216Z,1003.12
2018-04-08T10:38:34.912Z,1003.13
2018-04-08T10:39:43.807Z,1003.14
2018-04-08T10:40:52.988Z,1003.09
2018-04-08T10:42:01.893Z,1003.11
2018-04-08T10:43:10.531Z,1003.07
2018-04-08T10:44:20.216Z,1003.08
2018-04-08T10:45:29.384Z,1003.07
2018-04-08T10:46:38.819Z,1003.08
2018-04-08T10:47:47.450Z,1003.08
2018-04-08T10:48:56.618Z,1003.06
2018-04-08T10:50:05.509Z,1003.02
2018-04-08T10:51:14.956Z,1003
2018-04-08T10:52:23.875Z,1003
2018-04-08T10:53:33.281Z,1002.97
2018-04-08T10:54:43.000Z,1002.98
2018-04-08T10:55:52.740Z,1002.95
2018-04-08T10:57:02.169Z,1002.99
2018-04-08T10:58:11.398Z,1002.97
2018-04-08T10:59:20.360Z,1002.98
2018-04-08T11:00:29.827Z,1002.95
2018-04-08T11:01:38.989Z,1002.93
2018-04-08T11:02:47.868Z,1002.92
2018-04-08T11:03:57.293Z,1002.89
2018-04-08T11:05:06.703Z,1002.89
2018-04-08T11:06:16.105Z,1002.85
2018-04-08T11:07:25.000Z,1002.88
2018-04-08T11:08:33.901Z,1002.83
2018-04-08T11:09:42.790Z,1002.86
2018-04-08T11:10:51.937Z,1002.8
2018-04-08T11:12:01.118Z,1002.79
2018-04-08T11:13:10.541Z,1002.76
2018-04-08T11:14:19.710Z,1002.67
2018-04-08T11:15:28.874Z,1002.69
2018-04-08T11:16:38.280Z,1002.67
2018-04-08T11:17:47.171Z,1002.64
2018-04-08T11:18:56.883Z,1002.62
2018-04-08T11:20:06.567Z,1002.63
2018-04-08T11:21:15.769Z,1002.58
2018-04-08T11:22:24.679Z,1002.61
2018-04-08T11:23:34.275Z,1002.59
2018-04-08T11:24:43.428Z,1002.58
2018-04-08T11:25:52.850Z,1002.6
2018-04-08T11:27:01.489Z,1002.56
2018-04-08T11:28:10.453Z,1002.59
2018-04-08T11:29:19.886Z,1002.6
2018-04-08T11:30:29.056Z,1002.59
2018-04-08T11:31:37.757Z,1002.58
2018-04-08T11:32:46.682Z,1002.6
2018-04-08T11:33:55.577Z,1002.6
2018-04-08T11:35:04.513Z,1002.62
2018-04-08T11:36:13.399Z,1002.6
2018-04-08T11:37:22.044Z,1002.56
2018-04-08T11:38:31.190Z,1002.54
2018-04-08T11:39:40.345Z,1002.57
2018-04-08T11:40:49.279Z,1002.58
2018-04-08T11:41:58.741Z,1002.56
2018-04-08T11:43:07.916Z,1002.55
2018-04-08T11:44:17.095Z,1002.56
2018-04-08T11:45:26.257Z,1002.54
2018-04-08T11:46:35.145Z,1002.55
2018-04-08T11:47:44.654Z,1002.51
2018-04-08T11:48:53.284Z,1002.48
2018-04-08T11:50:02.772Z,1002.48
2018-04-08T11:51:12.207Z,1002.47
2018-04-08T11:52:21.363Z,1002.44
2018-04-08T11:53:30.890Z,1002.44
2018-04-08T11:54:40.056Z,1002.41
2018-04-08T11:55:48.959Z,1002.45
2018-04-08T11:56:58.364Z,1002.42
2018-04-08T11:58:06.997Z,1002.45
2018-04-08T11:59:15.886Z,1002.42
2018-04-08T12:00:24.795Z,1002.44
2018-04-08T12:01:33.949Z,1002.44
2018-04-08T12:02:43.110Z,1002.42
2018-04-08T12:03:52.018Z,1002.42
2018-04-08T12:05:01.676Z,1002.41
2018-04-08T12:06:10.567Z,1002.4
2018-04-08T12:07:19.198Z,1002.38
2018-04-08T12:08:28.093Z,1002.34
2018-04-08T12:09:37.505Z,1002.35
2018-04-08T12:10:46.645Z,1002.34
2018-04-08T12:11:55.617Z,1002.32
2018-04-08T12:13:04.801Z,1002.29
2018-04-08T12:14:14.208Z,1002.27
2018-04-08T12:15:23.354Z,1002.26
2018-04-08T12:16:32.266Z,1002.24
2018-04-08T12:17:40.903Z,1002.24
2018-04-08T12:18:50.066Z,1002.25
2018-04-08T12:19:58.972Z,1002.21
2018-04-08T12:21:08.381Z,1002.13
2018-04-08T12:22:17.831Z,1002.17
2018-04-08T12:23:26.468Z,1002.2
2018-04-08T12:24:35.984Z,1002.12
2018-04-08T12:25:44.614Z,1002.11
2018-04-08T12:26:53.491Z,1002.1
2018-04-08T12:28:02.637Z,1002.12
2018-04-08T12:29:11.317Z,1002.11
2018-04-08T12:30:20.468Z,1002.11
2018-04-08T12:31:29.617Z,1002.13
2018-04-08T12:32:38.246Z,1002.07
2018-04-08T12:33:47.157Z,1002.1
2018-04-08T12:34:56.039Z,1002.07
2018-04-08T12:36:05.202Z,1002.05
2018-04-08T12:37:13.855Z,1002.06
2018-04-08T12:38:23.265Z,1001.99
2018-04-08T12:39:33.681Z,1002.03
2018-04-08T12:40:46.319Z,1002.04
2018-04-08T12:41:55.735Z,1002.01
2018-04-08T12:43:05.162Z,1001.98
2018-04-08T12:44:14.603Z,1001.95
2018-04-08T12:45:23.781Z,1001.94
2018-04-08T12:46:32.413Z,1001.91
2018-04-08T12:47:41.562Z,1001.91
2018-04-08T12:48:50.962Z,1001.87
2018-04-08T12:50:00.112Z,1001.9
2018-04-08T12:51:09.268Z,1001.91
2018-04-08T12:52:17.957Z,1001.93
2018-04-08T12:53:26.847Z,1001.95
2018-04-08T12:54:35.988Z,1001.97
2018-04-08T12:55:44.880Z,1001.89
2018-04-08T12:56:54.035Z,1001.91
2018-04-08T12:58:02.689Z,1001.86
2018-04-08T12:59:12.112Z,1001.92
2018-04-08T13:00:21.263Z,1001.87
2018-04-08T13:01:30.782Z,1001.84
2018-04-08T13:02:39.668Z,1001.84
2018-04-08T13:03:48.557Z,1001.82
2018-04-08T13:04:57.192Z,1001.8
2018-04-08T13:06:06.104Z,1001.77
2018-04-08T13:07:14.990Z,1001.74
2018-04-08T13:08:24.141Z,1001.69
2018-04-08T13:09:33.280Z,1001.69
2018-04-08T13:10:42.600Z,1001.67
2018-04-08T13:11:52.032Z,1001.73
2018-04-08T13:13:01.243Z,1001.7
2018-04-08T13:14:10.281Z,1001.7
2018-04-08T13:15:20.239Z,1001.67
2018-04-08T13:16:30.710Z,1001.61
2018-04-08T13:17:39.681Z,1001.62
2018-04-08T13:18:48.802Z,1001.63
2018-04-08T13:19:58.361Z,1001.59
2018-04-08T13:21:08.624Z,1001.5
2018-04-08T13:22:19.438Z,1001.55
2018-04-08T13:23:28.842Z,1001.53
2018-04-08T13:24:38.331Z,1001.51
2018-04-08T13:25:47.581Z,1001.49
2018-04-08T13:26:57.354Z,1001.45
2018-04-08T13:28:06.277Z,1001.44
2018-04-08T13:29:15.550Z,1001.46
2018-04-08T13:30:24.411Z,1001.46
2018-04-08T13:31:33.774Z,1001.45
2018-04-08T13:32:42.988Z,1001.41
2018-04-08T13:33:52.278Z,1001.41
2018-04-08T13:35:02.544Z,1001.44
2018-04-08T13:36:12.019Z,1001.42
2018-04-08T13:37:22.145Z,1001.38
2018-04-08T13:38:31.818Z,1001.38
2018-04-08T13:39:40.732Z,1001.4
2018-04-08T13:40:50.711Z,1001.34
2018-04-08T13:42:00.511Z,1001.35
2018-04-08T13:43:09.841Z,1001.36
2018-04-08T13:44:18.928Z,1001.32
2018-04-08T13:45:28.002Z,1001.3
2018-04-08T13:46:38.238Z,1001.3
2018-04-08T13:47:47.396Z,1001.29
2018-04-08T13:48:56.776Z,1001.31
2018-04-08T13:50:06.767Z,1001.33
2018-04-08T13:51:16.084Z,1001.34
2018-04-08T13:52:25.270Z,1001.29
2018-04-08T13:53:34.474Z,1001.26
2018-04-08T13:54:43.718Z,1001.24
2018-04-08T13:55:52.709Z,1001.24
2018-04-08T13:57:01.961Z,1001.21
2018-04-08T13:58:11.285Z,1001.24
2018-04-08T13:59:20.168Z,1001.22